Time;durP1;ratioP1;P1;durP2;ratioP2;P2;SDS_P1;SDS_P2;PMS_P1;PMS_P2;Temp;Humidity;BMP_temperature;BMP_pressure;BME280_temperature;BME280_humidity;BME280_pressure;Samples;Min_cycle;Max_cycle;Signal;HPM_P1;HPM_P2
2023/10/18 00:02:41;;;;;;;7.70;4.40;;;;;;;8.29;70.91;98862.28;7258056;39;20265;31
2023/10/18 00:08:03;;;;;;;5.75;4.45;;;;;;;8.27;71.02;98856.22;7304322;39;20259;31
2023/10/18 00:13:36;;;;;;;6.70;4.73;;;;;;;8.21;71.23;98851.47;7074642;40;21337;31
2023/10/18 00:19:12;;;;;;;6.90;4.47;;;;;;;8.23;71.25;98854.84;7215456;40;20273;31
2023/10/18 00:29:51;;;;;;;8.87;4.90;;;;;;;8.25;71.24;98834.87;7185471;40;20282;31
2023/10/18 00:35:31;;;;;;;7.77;4.60;;;;;;;8.13;72.07;98833.47;7250891;39;20260;31
2023/10/18 00:40:50;;;;;;;9.07;5.20;;;;;;;8.12;71.05;98827.28;7278170;40;20318;31
2023/10/18 00:46:38;;;;;;;7.50;4.87;;;;;;;8.10;71.58;98823.94;7225644;40;20268;31
2023/10/18 00:51:57;;;;;;;6.90;5.07;;;;;;;8.14;71.81;98819.06;7174965;40;20246;31
2023/10/18 00:57:36;;;;;;;6.57;4.90;;;;;;;8.01;71.92;98811.47;7178834;40;20477;31
2023/10/18 01:03:14;;;;;;;7.10;5.00;;;;;;;8.09;70.81;98803.44;7197446;40;20328;31
2023/10/18 01:08:40;;;;;;;6.43;4.80;;;;;;;8.07;71.77;98802.75;7254785;40;21429;31
2023/10/18 01:14:17;;;;;;;5.90;4.73;;;;;;;8.06;71.39;98797.56;7287309;39;20272;31
2023/10/18 01:24:57;;;;;;;6.50;5.20;;;;;;;7.95;72.14;98785.25;7249063;39;20257;31
2023/10/18 01:30:32;;;;;;;7.23;4.97;;;;;;;8.00;71.23;98785.62;7285175;40;20351;31
2023/10/18 01:36:11;;;;;;;7.20;5.07;;;;;;;7.94;72.15;98788.94;7264682;39;20245;31
2023/10/18 01:41:40;;;;;;;6.53;5.00;;;;;;;7.93;72.18;98771.19;7255269;40;20411;31
2023/10/18 01:52:06;;;;;;;7.83;5.73;;;;;;;8.03;72.28;98763.00;7227518;40;20351;31
2023/10/18 01:57:44;;;;;;;6.77;5.13;;;;;;;7.98;71.96;98760.81;7197779;40;20249;31
2023/10/18 02:03:16;;;;;;;8.97;5.63;;;;;;;7.96;71.25;98752.06;7232808;40;20304;31
2023/10/18 02:08:49;;;;;;;13.20;6.33;;;;;;;7.93;72.01;98744.34;7216511;40;20242;31
2023/10/18 02:14:25;;;;;;;7.77;5.87;;;;;;;7.93;72.87;98736.28;7176631;40;20261;31
2023/10/18 02:19:44;;;;;;;7.33;5.70;;;;;;;7.93;71.48;98746.19;7194357;40;20738;31
2023/10/18 02:25:08;;;;;;;8.20;6.00;;;;;;;7.90;72.24;98739.28;7207400;40;20243;31
2023/10/18 02:30:42;;;;;;;8.05;6.65;;;;;;;7.79;73.32;98744.94;7279691;39;20251;31
2023/10/18 02:36:01;;;;;;;8.67;6.10;;;;;;;7.88;72.23;98727.87;7242547;40;20402;31
2023/10/18 02:41:21;;;;;;;7.70;6.05;;;;;;;7.83;73.60;98724.84;7265769;40;20301;31
2023/10/18 02:47:10;;;;;;;8.73;7.00;;;;;;;7.83;73.39;98724.00;7270350;40;20382;31
2023/10/18 02:52:35;;;;;;;9.00;6.50;;;;;;;7.91;72.97;98715.97;7232753;40;20258;31
2023/10/18 03:03:13;;;;;;;9.00;6.23;;;;;;;7.82;73.05;98695.47;7223043;40;20277;31
2023/10/18 03:13:52;;;;;;;8.53;6.67;;;;;;;7.84;73.58;98699.69;7335127;39;20250;31
2023/10/18 03:24:36;;;;;;;10.66;7.12;;;;;;;7.80;73.15;98700.19;7318517;39;20272;31
2023/10/18 03:35:11;;;;;;;8.90;7.10;;;;;;;7.79;73.16;98679.72;7316239;39;20283;31
2023/10/18 03:46:10;;;;;;;9.43;6.83;;;;;;;7.81;73.92;98665.13;7287165;39;20279;31
2023/10/18 03:51:30;;;;;;;9.47;7.67;;;;;;;7.79;73.54;98669.81;7257096;40;20244;31
2023/10/18 03:57:06;;;;;;;11.67;8.00;;;;;;;7.73;74.05;98659.72;7258954;40;20260;31
2023/10/18 04:02:45;;;;;;;10.70;8.03;;;;;;;7.87;73.37;98659.13;7301452;39;20263;31
2023/10/18 04:08:16;;;;;;;9.45;7.65;;;;;;;7.79;73.79;98650.19;7299612;39;20259;31
2023/10/18 04:13:51;;;;;;;13.15;8.00;;;;;;;7.75;73.29;98643.47;7238707;40;20268;31
2023/10/18 04:19:26;;;;;;;9.40;8.00;;;;;;;7.72;73.86;98631.25;7189969;40;20400;31
2023/10/18 04:25:08;;;;;;;10.47;7.97;;;;;;;7.69;73.92;98634.22;7127955;40;20254;31
2023/10/18 04:30:38;;;;;;;11.50;7.87;;;;;;;7.61;73.94;98631.53;7139133;40;20346;31
2023/10/18 04:36:14;;;;;;;10.25;7.75;;;;;;;7.59;74.68;98625.50;7108490;40;20271;31
2023/10/18 04:41:49;;;;;;;9.23;7.30;;;;;;;7.61;73.75;98618.97;7125514;40;20374;31
2023/10/18 04:47:14;;;;;;;11.20;8.50;;;;;;;7.65;74.19;98614.09;7176218;40;20722;31
2023/10/18 04:52:52;;;;;;;10.33;8.43;;;;;;;7.54;74.26;98609.06;7209784;40;20414;31
2023/10/18 05:03:17;;;;;;;10.70;8.50;;;;;;;7.54;74.22;98615.25;7283486;39;20393;31
2023/10/18 05:08:55;;;;;;;11.60;8.00;;;;;;;7.53;73.94;98593.97;7303669;39;20282;31
2023/10/18 05:14:43;;;;;;;11.97;8.73;;;;;;;7.45;75.07;98580.53;7281429;39;20244;31
2023/10/18 05:20:16;;;;;;;11.45;8.95;;;;;;;7.45;74.66;98576.00;7283359;40;20258;31
2023/10/18 05:36:35;;;;;;;13.07;9.20;;;;;;;7.42;74.79;98572.78;7295294;39;20245;31
2023/10/18 05:42:13;;;;;;;11.42;9.48;;;;;;;7.42;75.19;98565.59;7326588;39;20252;31
2023/10/18 05:47:48;;;;;;;13.03;8.87;;;;;;;7.41;75.18;98565.78;7279984;40;20268;31
2023/10/18 05:58:18;;;;;;;11.83;8.83;;;;;;;7.41;74.50;98549.69;7254780;40;20269;31
2023/10/18 06:03:49;;;;;;;11.23;9.20;;;;;;;7.38;74.79;98540.13;7230990;40;20344;31
2023/10/18 06:09:11;;;;;;;13.10;9.40;;;;;;;7.46;74.92;98555.41;7200112;40;20281;31
2023/10/18 06:14:45;;;;;;;13.70;9.95;;;;;;;7.43;74.85;98553.03;7244650;40;20242;31
2023/10/18 06:20:27;;;;;;;14.23;9.07;;;;;;;7.44;74.51;98562.75;7249298;40;20454;31
2023/10/18 06:25:49;;;;;;;11.90;9.40;;;;;;;7.48;74.66;98556.06;7269080;39;20341;31
2023/10/18 06:31:24;;;;;;;11.70;9.50;;;;;;;7.42;75.29;98554.88;7292990;39;20268;31
2023/10/18 06:37:01;;;;;;;12.83;9.47;;;;;;;7.50;74.82;98546.84;7224188;40;20257;31
2023/10/18 06:42:34;;;;;;;10.97;8.30;;;;;;;7.52;74.90;98550.22;7225966;40;20273;31
2023/10/18 06:47:55;;;;;;;11.70;8.50;;;;;;;7.57;74.32;98539.84;7197178;40;20378;31
2023/10/18 06:53:31;;;;;;;13.16;9.56;;;;;;;7.60;74.32;98535.97;7234444;40;20246;31
2023/10/18 06:58:51;;;;;;;11.77;9.57;;;;;;;7.66;74.58;98519.25;7196405;40;20358;31
2023/10/18 07:04:28;;;;;;;11.70;9.20;;;;;;;7.56;74.56;98519.38;7253511;40;20273;31
2023/10/18 07:15:09;;;;;;;13.65;9.65;;;;;;;7.67;74.39;98523.63;7247776;40;20266;31
2023/10/18 07:20:33;;;;;;;11.68;9.80;;;;;;;7.71;74.07;98535.69;6988465;40;20573;31
2023/10/18 07:26:02;;;;;;;12.90;10.10;;;;;;;7.79;74.05;98529.50;7274144;39;20332;31
2023/10/18 07:31:39;;;;;;;12.97;10.07;;;;;;;7.89;73.32;98525.66;7256659;39;20414;31
2023/10/18 07:37:24;;;;;;;11.10;9.85;;;;;;;7.93;72.57;98526.16;7186559;40;20266;31
2023/10/18 07:42:42;;;;;;;14.90;9.67;;;;;;;7.90;73.37;98499.66;7199425;40;20242;31
2023/10/18 07:48:20;;;;;;;11.40;9.05;;;;;;;7.83;73.67;98483.38;7204873;40;20243;31
2023/10/18 07:53:39;;;;;;;12.33;9.90;;;;;;;7.86;73.74;98483.03;7247980;40;20484;31
2023/10/18 07:59:29;;;;;;;11.80;9.65;;;;;;;7.92;73.84;98474.34;7225160;40;20337;31
2023/10/18 08:05:08;;;;;;;11.90;9.45;;;;;;;7.96;73.12;98464.94;7245909;40;20249;31
2023/10/18 08:10:42;;;;;;;14.95;10.00;;;;;;;8.02;73.12;98472.34;7269832;39;20461;31
2023/10/18 08:16:10;;;;;;;13.33;9.80;;;;;;;8.18;72.72;98470.63;7259111;39;20393;31
2023/10/18 08:21:39;;;;;;;12.17;9.97;;;;;;;8.27;72.70;98464.25;7297604;39;20371;31
2023/10/18 08:27:14;;;;;;;13.40;10.60;;;;;;;8.40;72.22;98454.69;7278365;39;21464;31
2023/10/18 08:32:37;;;;;;;13.80;10.70;;;;;;;8.49;72.39;98455.50;7257905;40;20335;31
2023/10/18 08:38:12;;;;;;;12.15;10.20;;;;;;;8.59;72.26;98453.47;7270390;39;20351;31
2023/10/18 08:43:46;;;;;;;11.90;10.10;;;;;;;8.71;71.56;98452.09;7291294;39;20319;31
2023/10/18 08:49:32;;;;;;;12.50;10.00;;;;;;;8.87;70.91;98451.16;7273780;39;20338;31
2023/10/18 08:55:19;;;;;;;13.53;9.40;;;;;;;9.09;70.13;98445.03;7186604;40;20242;31
2023/10/18 09:01:05;;;;;;;12.95;9.90;;;;;;;9.22;70.14;98425.63;7194899;40;20348;31
2023/10/18 09:06:40;;;;;;;13.05;9.65;;;;;;;9.41;70.15;98420.66;7196302;40;20384;31
2023/10/18 09:12:15;;;;;;;11.75;10.00;;;;;;;9.44;70.35;98404.16;7230102;40;20371;31
2023/10/18 09:17:50;;;;;;;11.75;9.65;;;;;;;9.60;69.33;98405.91;7261818;39;20279;31
2023/10/18 09:23:29;;;;;;;10.55;9.25;;;;;;;9.76;68.94;98405.75;7215463;40;20257;31
2023/10/18 09:29:02;;;;;;;13.40;9.60;;;;;;;9.85;69.17;98404.66;7148009;40;20480;31
2023/10/18 09:34:38;;;;;;;10.80;9.27;;;;;;;9.84;68.56;98402.16;7190744;40;20340;31
2023/10/18 09:40:13;;;;;;;12.50;10.10;;;;;;;9.96;68.64;98380.00;7187855;40;20261;31
2023/10/18 09:45:48;;;;;;;13.80;10.10;;;;;;;10.11;68.17;98376.50;7238797;40;20337;31
2023/10/18 09:51:23;;;;;;;11.90;10.05;;;;;;;10.34;68.17;98380.00;7230484;40;20269;31
2023/10/18 09:56:56;;;;;;;14.17;9.73;;;;;;;10.24;67.69;98341.72;7197965;40;20479;31
2023/10/18 10:02:32;;;;;;;11.55;9.80;;;;;;;10.25;68.60;98340.69;7234116;40;20338;31
2023/10/18 10:08:08;;;;;;;11.82;10.07;;;;;;;10.37;68.23;98352.69;7211638;40;21415;31
2023/10/18 10:13:45;;;;;;;13.43;9.97;;;;;;;10.47;67.99;98350.53;7164896;40;20810;31
2023/10/18 10:24:33;;;;;;;12.07;9.70;;;;;;;10.54;68.03;98337.16;7137383;40;20296;31
2023/10/18 10:30:19;;;;;;;11.87;8.80;;;;;;;10.56;68.33;98327.88;7216884;40;20706;31
2023/10/18 10:35:41;;;;;;;11.77;9.83;;;;;;;10.60;67.82;98325.63;7253576;39;20329;31
2023/10/18 10:41:20;;;;;;;13.00;9.90;;;;;;;10.64;67.61;98319.66;7195704;40;20257;31
2023/10/18 10:46:55;;;;;;;11.15;9.50;;;;;;;10.69;67.89;98301.09;7187292;40;20903;31
2023/10/18 10:52:30;;;;;;;11.43;9.17;;;;;;;10.72;67.78;98276.44;7287644;39;20734;31
2023/10/18 11:03:13;;;;;;;11.87;8.77;;;;;;;10.99;66.88;98264.09;7238656;40;20302;31
2023/10/18 11:08:30;;;;;;;11.23;9.07;;;;;;;11.10;66.84;98268.94;7231031;40;20258;31
2023/10/18 11:14:05;;;;;;;11.30;9.43;;;;;;;11.16;65.90;98254.69;7231591;40;20601;31
2023/10/18 11:19:42;;;;;;;13.07;8.93;;;;;;;11.18;66.09;98246.44;7237991;40;20662;31
2023/10/18 11:25:19;;;;;;;9.73;8.33;;;;;;;11.27;66.22;98243.41;7247464;40;20845;31
2023/10/18 11:30:53;;;;;;;8.93;7.83;;;;;;;11.36;64.99;98222.50;7213627;40;20799;31
2023/10/18 11:36:30;;;;;;;11.00;8.50;;;;;;;11.38;65.39;98203.41;7213804;40;20884;31
2023/10/18 11:42:06;;;;;;;11.95;9.35;;;;;;;11.51;65.54;98193.56;7237465;40;20398;31
2023/10/18 11:47:41;;;;;;;13.00;9.45;;;;;;;11.50;65.69;98180.25;7223894;40;20836;31
2023/10/18 11:53:24;;;;;;;12.77;9.23;;;;;;;11.51;66.23;98176.53;7226888;40;20460;31
2023/10/18 11:59:13;;;;;;;11.67;8.83;;;;;;;11.67;65.69;98160.03;7188320;40;20318;31
2023/10/18 12:04:49;;;;;;;14.53;9.03;;;;;;;11.79;66.34;98157.63;7200747;40;20246;31
2023/10/18 12:10:34;;;;;;;12.10;9.57;;;;;;;11.86;65.10;98159.31;7232189;39;20273;31
2023/10/18 12:16:08;;;;;;;11.00;8.97;;;;;;;11.96;65.23;98164.34;7216685;40;20312;31
2023/10/18 12:21:41;;;;;;;10.85;8.05;;;;;;;12.04;64.59;98166.88;7198619;40;20242;31
2023/10/18 12:27:28;;;;;;;9.30;8.30;;;;;;;12.03;64.67;98157.09;7242523;39;20394;31
2023/10/18 12:32:54;;;;;;;11.70;8.70;;;;;;;12.02;64.92;98155.47;7266764;39;20246;31
2023/10/18 12:38:32;;;;;;;13.57;8.77;;;;;;;12.09;64.54;98142.81;7256151;39;20235;31
2023/10/18 12:44:11;;;;;;;13.15;9.20;;;;;;;12.12;63.70;98135.13;7226710;40;20301;31
2023/10/18 12:49:45;;;;;;;12.93;9.53;;;;;;;12.15;64.99;98125.81;7213501;40;20268;31
2023/10/18 13:00:32;;;;;;;11.45;8.35;;;;;;;12.12;64.57;98100.00;7216655;40;20289;31
2023/10/18 13:22:04;;;;;;;12.10;8.40;;;;;;;12.12;66.13;98061.38;7306684;39;20255;31
2023/10/18 13:27:36;;;;;;;9.70;7.90;;;;;;;12.10;66.37;98050.78;7257812;40;20241;31
2023/10/18 13:32:48;;;;;;;13.53;8.57;;;;;;;12.12;66.17;98050.56;7291898;39;20272;31
2023/10/18 13:38:24;;;;;;;12.05;8.40;;;;;;;12.09;66.42;98038.31;7313227;39;20277;31
2023/10/18 13:43:42;;;;;;;11.00;8.40;;;;;;;12.14;66.30;98040.41;7109422;39;21387;31
2023/10/18 13:49:03;;;;;;;12.45;8.20;;;;;;;12.14;66.08;98010.69;7307938;39;20248;31
2023/10/18 13:54:40;;;;;;;9.20;7.90;;;;;;;12.09;66.38;97969.94;7274999;40;20332;31
2023/10/18 14:00:00;;;;;;;9.10;7.80;;;;;;;12.12;66.57;97978.47;7255949;40;20379;31
2023/10/18 14:05:36;;;;;;;10.43;7.47;;;;;;;12.18;66.84;97966.84;7276358;39;20240;31
2023/10/18 14:11:13;;;;;;;13.73;7.87;;;;;;;12.29;66.97;97980.75;7206241;40;20262;31
2023/10/18 14:16:48;;;;;;;11.15;7.55;;;;;;;12.33;66.82;97974.72;7184348;40;20261;31
2023/10/18 14:22:27;;;;;;;9.70;7.50;;;;;;;12.41;66.72;97961.03;7119583;40;20259;31
2023/10/18 14:28:00;;;;;;;8.07;6.93;;;;;;;12.33;67.34;97947.72;7142982;40;20249;31
2023/10/18 14:33:37;;;;;;;9.60;7.07;;;;;;;12.37;67.21;97930.06;7104700;40;20327;31
2023/10/18 14:39:12;;;;;;;10.00;7.25;;;;;;;12.43;67.44;97934.63;7182234;40;20250;31
2023/10/18 14:44:48;;;;;;;9.87;7.37;;;;;;;12.45;67.25;97929.00;7226690;40;20383;31
2023/10/18 14:50:10;;;;;;;10.60;7.20;;;;;;;12.46;66.71;97922.56;7215282;40;20261;31
2023/10/18 14:55:29;;;;;;;8.75;7.15;;;;;;;12.48;67.04;97926.72;7256390;40;20259;31
2023/10/18 15:01:05;;;;;;;9.30;6.43;;;;;;;12.42;67.44;97916.72;7330609;39;20458;31
2023/10/18 15:06:44;;;;;;;9.07;6.73;;;;;;;12.51;67.38;97906.53;7326712;39;20328;31
2023/10/18 15:12:20;;;;;;;7.97;6.43;;;;;;;12.53;67.64;97902.59;7243705;40;20390;31
2023/10/18 15:17:55;;;;;;;7.90;6.30;;;;;;;12.50;66.96;97894.09;7234708;40;20297;31
2023/10/18 15:23:31;;;;;;;13.30;9.90;;;;;;;12.55;67.39;97892.38;7246069;39;20253;31
2023/10/18 15:29:08;;;;;;;9.37;7.00;;;;;;;12.63;67.29;97885.94;7205707;40;21487;31
2023/10/18 15:34:45;;;;;;;8.87;7.17;;;;;;;12.59;66.98;97885.50;7176530;40;20246;31
2023/10/18 15:40:21;;;;;;;9.40;6.87;;;;;;;12.54;67.66;97882.63;7173698;40;20261;31
2023/10/18 15:45:53;;;;;;;9.60;6.40;;;;;;;12.50;68.57;97857.09;7207468;40;20265;31
2023/10/18 15:51:30;;;;;;;7.40;6.00;;;;;;;12.54;68.05;97857.47;7205158;40;20257;31
2023/10/18 15:57:05;;;;;;;7.35;6.25;;;;;;;12.55;68.04;97851.00;7212864;40;20375;31
2023/10/18 16:02:27;;;;;;;8.90;5.90;;;;;;;12.57;68.35;97857.88;7168445;40;20247;31
2023/10/18 16:08:04;;;;;;;10.35;7.35;;;;;;;12.58;68.40;97850.59;7209833;40;20269;31
2023/10/18 16:13:39;;;;;;;9.43;7.30;;;;;;;12.59;68.02;97847.66;7224934;39;20364;31
2023/10/18 16:19:15;;;;;;;17.05;9.75;;;;;;;12.58;68.80;97850.59;7235034;40;20288;31
2023/10/18 16:24:49;;;;;;;9.83;6.50;;;;;;;12.60;68.81;97835.81;7188526;40;20385;31
2023/10/18 16:30:27;;;;;;;6.83;5.40;;;;;;;12.61;69.49;97845.59;7177711;40;20690;31
2023/10/18 16:36:01;;;;;;;9.57;5.30;;;;;;;12.55;69.19;97832.94;7198882;40;20250;31
2023/10/18 16:41:36;;;;;;;8.35;5.75;;;;;;;12.62;69.23;97816.69;7232456;40;20261;31
2023/10/18 16:46:57;;;;;;;11.30;5.17;;;;;;;12.61;69.37;97813.16;7198764;40;20567;31
2023/10/18 16:52:18;;;;;;;7.00;5.60;;;;;;;12.60;69.50;97811.50;7196589;40;20541;31
2023/10/18 16:57:54;;;;;;;8.43;5.33;;;;;;;12.54;70.70;97798.84;7231693;40;20775;31
2023/10/18 17:03:12;;;;;;;9.77;5.70;;;;;;;12.56;70.31;97793.22;7252688;40;20619;31
2023/10/18 17:08:46;;;;;;;8.03;5.67;;;;;;;12.58;69.51;97791.13;7328789;39;20796;31
2023/10/18 17:14:23;;;;;;;5.73;5.00;;;;;;;12.64;69.43;97790.25;7298929;40;20258;31
2023/10/18 17:19:43;;;;;;;7.15;6.10;;;;;;;12.73;69.72;97780.88;7208146;40;20870;31
2023/10/18 17:25:17;;;;;;;10.20;6.30;;;;;;;12.75;69.19;97770.69;7208921;40;20798;31
2023/10/18 17:30:53;;;;;;;10.20;7.60;;;;;;;12.74;69.06;97765.47;7186835;40;20897;31
2023/10/18 17:36:18;;;;;;;9.47;6.10;;;;;;;12.78;69.26;97756.72;7183842;40;20636;31
2023/10/18 17:41:34;;;;;;;6.90;5.10;;;;;;;12.75;69.15;97748.22;7219084;40;20298;31
2023/10/18 17:47:10;;;;;;;7.30;5.00;;;;;;;12.74;69.08;97746.56;7222308;40;20297;31
2023/10/18 17:57:35;;;;;;;7.50;5.20;;;;;;;12.77;69.19;97717.22;7288975;39;20281;31
2023/10/18 18:03:12;;;;;;;10.80;5.70;;;;;;;12.74;69.44;97708.72;7331675;39;20339;31
2023/10/18 18:08:46;;;;;;;5.50;4.80;;;;;;;12.77;70.03;97708.28;7253371;40;20252;31
2023/10/18 18:14:06;;;;;;;10.30;5.40;;;;;;;12.79;69.77;97700.78;7216706;40;20278;31
2023/10/18 18:19:43;;;;;;;6.00;5.10;;;;;;;12.77;70.11;97700.19;7185757;40;20255;31
2023/10/18 18:25:18;;;;;;;5.83;4.90;;;;;;;12.79;69.63;97711.59;7182472;40;20282;31
2023/10/18 18:35:58;;;;;;;8.90;6.37;;;;;;;12.85;69.97;97705.34;7230060;40;20280;31
2023/10/18 18:41:18;;;;;;;7.60;5.40;;;;;;;12.88;70.40;97711.12;7205697;40;20246;31
2023/10/18 18:46:38;;;;;;;7.40;5.40;;;;;;;12.88;69.76;97707.59;7187338;40;20253;31
2023/10/18 18:52:15;;;;;;;10.30;6.40;;;;;;;12.75;71.00;97696.84;7183504;40;20241;31
2023/10/18 18:57:50;;;;;;;8.50;6.43;;;;;;;12.70;71.54;97697.50;7194875;40;20300;31
2023/10/18 19:03:11;;;;;;;11.40;6.60;;;;;;;12.72;71.88;97700.00;7235012;40;20260;31
2023/10/18 19:08:48;;;;;;;9.70;6.40;;;;;;;12.76;71.65;97685.84;7254465;40;20234;31
2023/10/18 19:14:23;;;;;;;8.87;7.10;;;;;;;12.74;72.82;97689.78;7276404;40;20323;31
2023/10/18 19:19:44;;;;;;;13.85;6.05;;;;;;;12.75;72.67;97691.44;7248586;40;20246;31
2023/10/18 19:25:17;;;;;;;8.85;6.55;;;;;;;12.69;74.06;97690.44;7264093;40;20370;31
2023/10/18 19:30:52;;;;;;;9.40;6.70;;;;;;;12.63;73.95;97685.91;7226267;40;20543;31
2023/10/18 19:41:33;;;;;;;11.20;8.00;;;;;;;12.53;75.03;97675.56;7260676;40;20267;31
2023/10/18 19:46:52;;;;;;;11.20;8.30;;;;;;;12.46;75.95;97690.16;7235926;40;20254;31
2023/10/18 19:52:12;;;;;;;12.80;9.47;;;;;;;12.40;76.87;97675.63;7224030;40;20344;31
2023/10/18 19:57:49;;;;;;;12.80;9.30;;;;;;;12.34;77.39;97668.37;7263918;40;20260;31
2023/10/18 20:03:06;;;;;;;12.80;9.73;;;;;;;12.35;77.52;97664.62;7270101;39;20492;31
2023/10/18 20:08:39;;;;;;;14.13;9.37;;;;;;;12.25;78.61;97666.97;7077352;39;21190;31
2023/10/18 20:14:15;;;;;;;10.40;9.20;;;;;;;12.20;79.00;97659.50;7278553;39;20255;31
2023/10/18 20:19:50;;;;;;;12.47;9.00;;;;;;;12.18;79.34;97669.72;7234448;40;20323;31
2023/10/18 20:25:25;;;;;;;14.30;9.57;;;;;;;12.05;79.66;97656.25;7227308;40;20246;31
2023/10/18 20:31:02;;;;;;;12.80;9.70;;;;;;;12.03;79.87;97646.69;7282983;39;20280;31
2023/10/18 20:41:41;;;;;;;14.93;12.00;;;;;;;12.06;80.44;97641.72;7299518;39;20261;31
2023/10/18 20:47:17;;;;;;;14.67;11.77;;;;;;;12.06;80.00;97641.72;7237038;40;20285;31
2023/10/18 20:52:41;;;;;;;16.30;12.20;;;;;;;12.07;80.13;97634.41;7216931;40;20253;31
2023/10/18 20:57:57;;;;;;;14.67;11.67;;;;;;;12.10;80.02;97634.00;7217890;40;20272;31
2023/10/18 21:03:34;;;;;;;13.90;12.10;;;;;;;12.05;80.70;97633.81;7233475;40;20245;31
2023/10/18 21:08:54;;;;;;;16.60;12.20;;;;;;;12.06;80.00;97625.50;7254761;39;20350;31
2023/10/18 21:19:33;;;;;;;14.12;10.68;;;;;;;12.04;81.35;97607.84;7356954;39;20263;31
2023/10/18 21:30:12;;;;;;;19.23;12.77;;;;;;;12.02;81.52;97602.66;7339503;39;20413;31
2023/10/18 21:35:48;;;;;;;13.20;11.70;;;;;;;12.01;81.60;97595.62;7274788;40;20281;31
2023/10/18 21:41:25;;;;;;;16.10;13.43;;;;;;;11.99;81.70;97580.66;7294591;39;20234;31
2023/10/18 21:46:46;;;;;;;16.65;13.45;;;;;;;11.91;82.12;97567.41;7275240;40;20248;31
2023/10/18 21:52:22;;;;;;;15.40;13.55;;;;;;;11.91;81.22;97549.34;7274134;40;20245;31
2023/10/18 21:57:57;;;;;;;18.50;13.50;;;;;;;11.94;81.08;97542.69;7266378;39;20292;31
2023/10/18 22:03:20;;;;;;;17.20;13.10;;;;;;;11.98;80.64;97535.81;7220043;40;20348;31
2023/10/18 22:08:52;;;;;;;17.20;14.40;;;;;;;11.89;81.36;97531.72;7221091;40;20266;31
2023/10/18 22:19:32;;;;;;;17.30;13.87;;;;;;;11.91;81.85;97535.84;7195222;40;20270;31
2023/10/18 22:30:19;;;;;;;17.83;13.88;;;;;;;11.90;82.51;97530.66;7269537;39;20278;31
2023/10/18 22:40:41;;;;;;;19.06;15.20;;;;;;;11.88;82.27;97525.50;7316026;39;20284;31
2023/10/18 22:51:33;;;;;;;18.23;15.57;;;;;;;11.79;82.43;97525.94;7326545;39;20267;31
2023/10/18 22:56:53;;;;;;;19.17;15.30;;;;;;;11.78;83.04;97533.22;7298119;39;20795;31
2023/10/18 23:02:27;;;;;;;19.35;15.60;;;;;;;11.74;83.48;97518.50;7244576;40;20573;31
2023/10/18 23:08:00;;;;;;;19.13;15.17;;;;;;;11.74;83.71;97518.50;7199875;40;20768;31
2023/10/18 23:13:47;;;;;;;17.40;14.53;;;;;;;11.68;83.96;97528.25;7187153;40;22030;31
2023/10/18 23:19:08;;;;;;;16.37;13.57;;;;;;;11.68;84.24;97522.00;7236724;40;20663;31
2023/10/18 23:24:36;;;;;;;15.47;13.77;;;;;;;11.60;84.86;97522.25;7246854;40;20648;31
2023/10/18 23:30:19;;;;;;;14.93;13.33;;;;;;;11.56;85.59;97516.47;7274592;40;20832;31
2023/10/18 23:35:52;;;;;;;16.17;13.57;;;;;;;11.68;84.72;97513.91;7220784;40;20620;31
2023/10/18 23:41:30;;;;;;;17.08;14.52;;;;;;;11.69;84.31;97497.50;7192728;40;20659;31
2023/10/18 23:47:10;;;;;;;15.33;13.73;;;;;;;11.75;84.50;97495.88;7222925;40;20258;31
2023/10/18 23:52:36;;;;;;;16.07;14.37;;;;;;;11.77;85.18;97492.94;7230462;40;20279;31
